Time;durP1;ratioP1;P1;durP2;ratioP2;P2;SDS_P1;SDS_P2;PMS_P1;PMS_P2;Temp;Humidity;BMP_temperature;BMP_pressure;BME280_temperature;BME280_humidity;BME280_pressure;Samples;Min_cycle;Max_cycle;Signal;HPM_P1;HPM_P2
2021/01/09 00:02:58;;;;;;;21.77;12.75;;;;;;;;;;6245918;28;20056;-67
2021/01/09 00:05:59;;;;;;;19.25;12.55;;;;;;;;;;6267979;28;20121;-67
2021/01/09 00:09:00;;;;;;;22.73;13.02;;;;;;;;;;6253794;28;20599;-67
2021/01/09 00:12:03;;;;;;;18.67;12.38;;;;;;;;;;6255878;28;20484;-67
2021/01/09 00:15:06;;;;;;;20.48;12.30;;;;;;;;;;6247612;28;20128;-66
2021/01/09 00:18:07;;;;;;;20.85;12.35;;;;;;;;;;6257801;28;20125;-68
2021/01/09 00:21:08;;;;;;;23.58;12.35;;;;;;;;;;6246640;28;20116;-67
2021/01/09 00:24:10;;;;;;;19.85;11.93;;;;;;;;;;6256009;28;20041;-67
2021/01/09 00:27:13;;;;;;;20.77;12.27;;;;;;;;;;6258173;28;20128;-66
2021/01/09 00:30:16;;;;;;;18.85;11.50;;;;;;;;;;6253993;28;20041;-69
2021/01/09 00:33:17;;;;;;;17.17;11.15;;;;;;;;;;6255382;28;20544;-67
2021/01/09 00:36:18;;;;;;;17.17;11.13;;;;;;;;;;6254136;28;20037;-67
2021/01/09 00:39:19;;;;;;;21.27;11.50;;;;;;;;;;6249004;28;20068;-67
2021/01/09 00:42:20;;;;;;;14.60;10.07;;;;;;;;;;6256353;28;20067;-67
2021/01/09 00:45:22;;;;;;;17.20;11.13;;;;;;;;;;6256036;28;20043;-66
2021/01/09 00:48:23;;;;;;;19.23;11.63;;;;;;;;;;6256092;28;20162;-67
2021/01/09 00:51:24;;;;;;;17.25;10.77;;;;;;;;;;6251759;28;20071;-66
2021/01/09 00:54:25;;;;;;;17.92;11.10;;;;;;;;;;6254987;28;20075;-67
2021/01/09 00:57:27;;;;;;;20.50;11.02;;;;;;;;;;6250819;28;20132;-66
2021/01/09 01:00:28;;;;;;;18.40;11.48;;;;;;;;;;6251459;28;20045;-67
2021/01/09 01:03:29;;;;;;;16.13;10.23;;;;;;;;;;6238378;28;20049;-69
2021/01/09 01:06:30;;;;;;;18.10;11.27;;;;;;;;;;6253585;28;20041;-66
2021/01/09 01:09:31;;;;;;;15.35;10.45;;;;;;;;;;6253026;28;20047;-67
2021/01/09 01:12:33;;;;;;;20.23;11.60;;;;;;;;;;6248523;28;20477;-67
2021/01/09 01:15:34;;;;;;;16.92;10.15;;;;;;;;;;6254931;28;20049;-67
2021/01/09 01:18:35;;;;;;;23.77;11.65;;;;;;;;;;6248371;28;20404;-67
2021/01/09 01:21:36;;;;;;;18.80;11.77;;;;;;;;;;6247869;28;20037;-67
2021/01/09 01:24:38;;;;;;;18.52;11.75;;;;;;;;;;6254354;28;20153;-66
2021/01/09 01:27:40;;;;;;;18.67;12.48;;;;;;;;;;6251161;28;20063;-67
2021/01/09 01:30:41;;;;;;;19.63;12.80;;;;;;;;;;6252612;28;20060;-67
2021/01/09 01:33:42;;;;;;;22.17;13.18;;;;;;;;;;6251000;28;20041;-66
2021/01/09 01:36:47;;;;;;;22.27;13.18;;;;;;;;;;6249942;28;20411;-66
2021/01/09 01:39:48;;;;;;;23.10;13.63;;;;;;;;;;6253305;28;20037;-67
2021/01/09 01:42:50;;;;;;;23.67;13.48;;;;;;;;;;6252593;28;20502;-68
2021/01/09 01:45:51;;;;;;;25.50;15.20;;;;;;;;;;6252478;28;20048;-67
2021/01/09 01:48:53;;;;;;;20.80;13.77;;;;;;;;;;6253129;28;20056;-69
2021/01/09 01:51:54;;;;;;;21.60;13.52;;;;;;;;;;6255684;28;20055;-68
2021/01/09 01:54:55;;;;;;;22.52;13.55;;;;;;;;;;6248930;28;20129;-66
2021/01/09 01:57:57;;;;;;;21.70;14.88;;;;;;;;;;6257308;28;20091;-66
2021/01/09 02:00:58;;;;;;;21.55;14.25;;;;;;;;;;6252895;28;20546;-66
2021/01/09 02:03:58;;;;;;;24.42;14.63;;;;;;;;;;6249500;28;20128;-66
2021/01/09 02:07:03;;;;;;;26.27;15.07;;;;;;;;;;6252527;28;20405;-68
2021/01/09 02:10:06;;;;;;;23.40;14.70;;;;;;;;;;6247857;28;20095;-67
2021/01/09 02:13:11;;;;;;;27.48;15.93;;;;;;;;;;6252064;28;20049;-66
2021/01/09 02:16:13;;;;;;;25.80;15.85;;;;;;;;;;6253045;28;20082;-66
2021/01/09 02:19:15;;;;;;;23.92;15.30;;;;;;;;;;6257330;28;20454;-66
2021/01/09 02:22:17;;;;;;;25.00;15.77;;;;;;;;;;6253313;28;20053;-67
2021/01/09 02:25:18;;;;;;;25.83;16.02;;;;;;;;;;6243810;28;20045;-66
2021/01/09 02:28:19;;;;;;;26.75;15.80;;;;;;;;;;6260679;28;20041;-66
2021/01/09 02:31:22;;;;;;;27.35;16.08;;;;;;;;;;6262196;28;20049;-67
2021/01/09 02:34:24;;;;;;;33.38;17.20;;;;;;;;;;6256301;28;20077;-67
2021/01/09 02:37:25;;;;;;;30.77;17.13;;;;;;;;;;6252807;28;20616;-67
2021/01/09 02:40:27;;;;;;;26.33;16.38;;;;;;;;;;6251536;28;20156;-68
2021/01/09 02:43:28;;;;;;;28.45;16.73;;;;;;;;;;6249524;28;20902;-66
2021/01/09 02:46:29;;;;;;;24.98;15.57;;;;;;;;;;6250414;28;20045;-66
2021/01/09 02:49:31;;;;;;;25.88;16.05;;;;;;;;;;6259396;28;20124;-67
2021/01/09 02:52:32;;;;;;;25.13;16.17;;;;;;;;;;6258622;28;20155;-67
2021/01/09 02:55:34;;;;;;;26.52;16.40;;;;;;;;;;6249702;28;21475;-66
2021/01/09 02:58:35;;;;;;;25.15;15.27;;;;;;;;;;6257221;28;20063;-67
2021/01/09 03:01:36;;;;;;;26.63;16.10;;;;;;;;;;6251567;28;20046;-67
2021/01/09 03:04:37;;;;;;;27.42;15.82;;;;;;;;;;6250030;28;20044;-69
2021/01/09 03:07:38;;;;;;;25.05;15.85;;;;;;;;;;6254504;28;20052;-67
2021/01/09 03:10:39;;;;;;;25.52;16.08;;;;;;;;;;6251390;28;20138;-66
2021/01/09 03:13:41;;;;;;;24.42;14.98;;;;;;;;;;6250010;28;20049;-66
2021/01/09 03:16:42;;;;;;;23.25;15.13;;;;;;;;;;6252108;28;20045;-66
2021/01/09 03:19:43;;;;;;;25.23;16.05;;;;;;;;;;6259592;28;20247;-68
2021/01/09 03:22:44;;;;;;;27.48;15.45;;;;;;;;;;6248257;28;20049;-67
2021/01/09 03:25:46;;;;;;;27.42;16.25;;;;;;;;;;6250592;28;20059;-67
2021/01/09 03:28:47;;;;;;;25.17;15.35;;;;;;;;;;6249868;28;20061;-67
2021/01/09 03:31:48;;;;;;;24.60;16.13;;;;;;;;;;6252264;28;20048;-66
2021/01/09 03:34:49;;;;;;;25.35;15.32;;;;;;;;;;6256830;28;20110;-67
2021/01/09 03:37:50;;;;;;;24.73;15.18;;;;;;;;;;6252572;28;20136;-66
2021/01/09 03:40:52;;;;;;;24.50;15.02;;;;;;;;;;6252799;28;20046;-67
2021/01/09 03:43:53;;;;;;;24.00;14.70;;;;;;;;;;6257401;28;20053;-66
2021/01/09 03:46:54;;;;;;;27.13;15.73;;;;;;;;;;6251988;28;20522;-67
2021/01/09 03:49:55;;;;;;;23.65;14.15;;;;;;;;;;6254549;28;20512;-66
2021/01/09 03:52:56;;;;;;;23.00;13.63;;;;;;;;;;6259325;28;20079;-66
2021/01/09 03:55:58;;;;;;;24.45;14.15;;;;;;;;;;6251343;28;20055;-66
2021/01/09 03:58:59;;;;;;;21.45;13.10;;;;;;;;;;6254725;28;20145;-68
2021/01/09 04:02:00;;;;;;;22.35;13.60;;;;;;;;;;6251647;28;20049;-69
2021/01/09 04:05:02;;;;;;;25.02;13.80;;;;;;;;;;6257306;28;20124;-66
2021/01/09 04:08:03;;;;;;;20.55;13.73;;;;;;;;;;6259843;28;20109;-65
2021/01/09 04:11:05;;;;;;;20.27;13.43;;;;;;;;;;6264656;28;20049;-66
2021/01/09 04:14:06;;;;;;;22.08;14.02;;;;;;;;;;6251907;28;20458;-67
2021/01/09 04:17:07;;;;;;;20.05;13.60;;;;;;;;;;6252976;28;20041;-66
2021/01/09 04:20:09;;;;;;;19.20;12.43;;;;;;;;;;6249798;28;20136;-66
2021/01/09 04:23:10;;;;;;;21.08;11.13;;;;;;;;;;6257203;28;21048;-68
2021/01/09 04:26:14;;;;;;;18.85;11.98;;;;;;;;;;6251706;28;20153;-66
2021/01/09 04:29:15;;;;;;;19.45;11.90;;;;;;;;;;6263500;28;20045;-67
2021/01/09 04:32:16;;;;;;;17.73;11.52;;;;;;;;;;6259232;28;20038;-66
2021/01/09 04:35:17;;;;;;;23.23;12.27;;;;;;;;;;6256708;28;20045;-67
2021/01/09 04:38:18;;;;;;;18.83;12.25;;;;;;;;;;6263276;28;20407;-68
2021/01/09 04:41:21;;;;;;;19.65;13.13;;;;;;;;;;6255265;28;20049;-66
2021/01/09 04:44:22;;;;;;;23.45;13.60;;;;;;;;;;6256176;28;20053;-67
2021/01/09 04:47:25;;;;;;;22.83;13.20;;;;;;;;;;6256898;28;20080;-66
2021/01/09 04:50:26;;;;;;;21.75;11.82;;;;;;;;;;6254784;28;20120;-66
2021/01/09 04:53:28;;;;;;;20.00;12.50;;;;;;;;;;6255532;28;20046;-69
2021/01/09 04:56:31;;;;;;;15.07;10.73;;;;;;;;;;6254201;28;20049;-69
2021/01/09 04:59:34;;;;;;;19.50;10.90;;;;;;;;;;6251333;28;20120;-66
2021/01/09 05:02:36;;;;;;;15.93;10.47;;;;;;;;;;6252912;28;20507;-70
2021/01/09 05:05:37;;;;;;;17.52;10.13;;;;;;;;;;6255246;28;20045;-70
2021/01/09 05:08:39;;;;;;;13.50;8.77;;;;;;;;;;6253627;28;20052;-65
2021/01/09 05:11:42;;;;;;;14.25;8.80;;;;;;;;;;6246113;28;20048;-66
2021/01/09 05:14:44;;;;;;;14.70;9.00;;;;;;;;;;6260634;28;20051;-67
2021/01/09 05:17:46;;;;;;;15.55;9.13;;;;;;;;;;6260050;28;20123;-68
2021/01/09 05:20:47;;;;;;;13.93;8.27;;;;;;;;;;6267350;28;20667;-70
2021/01/09 05:23:53;;;;;;;13.57;7.30;;;;;;;;;;6257353;28;20057;-68
2021/01/09 05:26:55;;;;;;;12.23;7.38;;;;;;;;;;6256228;28;20059;-66
2021/01/09 05:29:57;;;;;;;9.60;6.57;;;;;;;;;;6263312;28;20048;-70
2021/01/09 05:33:00;;;;;;;11.65;7.10;;;;;;;;;;6259373;28;20045;-68
2021/01/09 05:36:03;;;;;;;11.57;7.05;;;;;;;;;;6261064;28;20446;-67
2021/01/09 05:39:05;;;;;;;12.30;6.22;;;;;;;;;;6261777;28;20063;-68
2021/01/09 05:42:07;;;;;;;11.68;7.38;;;;;;;;;;6261409;28;20053;-67
2021/01/09 05:45:10;;;;;;;11.00;6.15;;;;;;;;;;6261130;28;20153;-67
2021/01/09 05:48:11;;;;;;;9.93;6.30;;;;;;;;;;6260175;28;20080;-68
2021/01/09 05:51:13;;;;;;;13.50;6.28;;;;;;;;;;6261153;28;20048;-69
2021/01/09 05:54:14;;;;;;;11.40;6.43;;;;;;;;;;6260843;28;20099;-69
2021/01/09 05:57:17;;;;;;;10.05;6.63;;;;;;;;;;6257277;28;20410;-71
2021/01/09 06:00:22;;;;;;;11.85;6.80;;;;;;;;;;6258168;28;20045;-68
2021/01/09 06:03:33;;;;;;;10.43;6.53;;;;;;;;;;6261688;28;20072;-68
2021/01/09 06:06:39;;;;;;;11.25;7.25;;;;;;;;;;6261735;28;20518;-69
2021/01/09 06:09:45;;;;;;;13.70;6.72;;;;;;;;;;6262823;28;20110;-68
2021/01/09 06:12:57;;;;;;;11.00;6.55;;;;;;;;;;6258962;28;20509;-68
2021/01/09 06:16:04;;;;;;;12.27;7.40;;;;;;;;;;6261829;28;20045;-68
2021/01/09 06:19:06;;;;;;;12.38;7.38;;;;;;;;;;6262140;28;20048;-68
2021/01/09 06:22:07;;;;;;;10.52;6.70;;;;;;;;;;6253984;28;20080;-69
2021/01/09 06:25:10;;;;;;;9.32;6.40;;;;;;;;;;6252566;28;20058;-68
2021/01/09 06:28:14;;;;;;;10.38;5.78;;;;;;;;;;6261991;28;20132;-68
2021/01/09 06:31:19;;;;;;;11.25;5.90;;;;;;;;;;6259055;28;20079;-69
2021/01/09 06:34:22;;;;;;;8.45;5.38;;;;;;;;;;6257276;28;20037;-68
2021/01/09 06:37:23;;;;;;;9.13;5.60;;;;;;;;;;6262288;28;20049;-69
2021/01/09 06:40:25;;;;;;;9.63;5.40;;;;;;;;;;6254810;28;20041;-70
2021/01/09 06:43:27;;;;;;;8.38;5.10;;;;;;;;;;6256040;28;20065;-69
2021/01/09 06:46:29;;;;;;;9.52;5.25;;;;;;;;;;6249902;28;20139;-68
2021/01/09 06:49:30;;;;;;;8.57;5.13;;;;;;;;;;6245812;28;20071;-68
2021/01/09 06:52:56;;;;;;;13.45;7.03;;;;;;;;;;6259608;28;20484;-69
2021/01/09 06:55:57;;;;;;;13.25;7.13;;;;;;;;;;6257044;28;20045;-68
2021/01/09 06:58:58;;;;;;;10.90;5.63;;;;;;;;;;6258003;28;20131;-70
2021/01/09 07:02:12;;;;;;;11.45;5.93;;;;;;;;;;6252036;28;20049;-69
2021/01/09 07:05:19;;;;;;;9.15;5.03;;;;;;;;;;6259114;28;20086;-69
2021/01/09 07:08:43;;;;;;;12.80;5.32;;;;;;;;;;5889059;28;10001214;-69
2021/01/09 07:11:44;;;;;;;13.90;5.80;;;;;;;;;;6247965;28;20440;-69
2021/01/09 07:14:46;;;;;;;8.52;4.43;;;;;;;;;;6249421;28;20048;-69
2021/01/09 07:17:52;;;;;;;6.80;4.15;;;;;;;;;;6257538;28;20124;-68
2021/01/09 07:20:55;;;;;;;8.68;4.68;;;;;;;;;;6257112;28;20124;-69
2021/01/09 07:23:56;;;;;;;9.15;4.85;;;;;;;;;;6245953;28;20057;-72
2021/01/09 07:26:58;;;;;;;10.27;4.80;;;;;;;;;;6250005;28;20052;-69
2021/01/09 07:30:07;;;;;;;9.57;5.05;;;;;;;;;;6253068;28;20131;-69
2021/01/09 07:33:09;;;;;;;9.82;5.90;;;;;;;;;;6256867;28;20057;-69
2021/01/09 07:36:11;;;;;;;10.40;5.75;;;;;;;;;;6256425;28;20571;-69
2021/01/09 07:39:13;;;;;;;9.45;5.68;;;;;;;;;;6261905;28;20119;-67
2021/01/09 07:42:24;;;;;;;11.55;5.78;;;;;;;;;;6256738;28;20048;-67
2021/01/09 07:45:32;;;;;;;10.45;6.00;;;;;;;;;;6258425;28;20057;-70
2021/01/09 07:48:33;;;;;;;11.40;5.82;;;;;;;;;;6257620;28;20053;-68
2021/01/09 07:51:50;;;;;;;10.70;5.50;;;;;;;;;;6263238;28;20622;-71
2021/01/09 07:54:55;;;;;;;10.15;5.70;;;;;;;;;;6264794;28;20051;-69
2021/01/09 07:57:56;;;;;;;10.23;5.95;;;;;;;;;;6261440;28;20427;-69
2021/01/09 08:00:58;;;;;;;9.80;5.88;;;;;;;;;;6264460;28;20087;-69
2021/01/09 08:03:59;;;;;;;14.00;5.65;;;;;;;;;;6265126;28;20544;-69
2021/01/09 08:07:00;;;;;;;9.10;6.13;;;;;;;;;;6265489;28;20041;-69
2021/01/09 08:10:15;;;;;;;9.82;6.07;;;;;;;;;;6257409;28;20065;-70
2021/01/09 08:13:17;;;;;;;;;;;;;;;;;;6254938;28;20037;-69
2021/01/09 08:16:25;;;;;;;10.88;6.53;;;;;;;;;;6259013;28;19971;-68
2021/01/09 08:19:26;;;;;;;12.32;6.70;;;;;;;;;;6261777;28;20098;-70
2021/01/09 08:22:27;;;;;;;14.13;6.88;;;;;;;;;;6258196;28;20045;-69
2021/01/09 08:25:30;;;;;;;13.82;6.50;;;;;;;;;;6260451;28;20087;-71
2021/01/09 08:28:31;;;;;;;12.55;6.63;;;;;;;;;;6258232;28;20096;-72
2021/01/09 08:31:36;;;;;;;15.77;5.75;;;;;;;;;;6257587;28;20049;-69
2021/01/09 08:34:37;;;;;;;9.50;6.38;;;;;;;;;;6261219;28;20124;-68
2021/01/09 08:37:38;;;;;;;12.60;6.18;;;;;;;;;;6260609;28;20061;-67
2021/01/09 08:40:40;;;;;;;12.15;6.10;;;;;;;;;;6232867;28;20136;-67
2021/01/09 08:43:41;;;;;;;12.27;6.47;;;;;;;;;;6252946;28;20614;-70
2021/01/09 08:46:44;;;;;;;10.10;5.72;;;;;;;;;;6251938;28;20526;-69
2021/01/09 08:49:47;;;;;;;11.10;5.93;;;;;;;;;;6253348;28;20067;-68
2021/01/09 08:52:49;;;;;;;9.45;5.65;;;;;;;;;;6251240;28;20474;-67
2021/01/09 08:55:51;;;;;;;12.85;6.40;;;;;;;;;;6257102;28;20049;-69
2021/01/09 08:58:52;;;;;;;13.25;6.30;;;;;;;;;;6251561;28;20447;-70
2021/01/09 09:01:57;;;;;;;11.15;5.97;;;;;;;;;;6255964;28;20053;-67
2021/01/09 09:04:59;;;;;;;12.05;5.60;;;;;;;;;;6260063;28;20079;-74
2021/01/09 09:08:01;;;;;;;10.25;5.93;;;;;;;;;;6255168;28;20436;-73
2021/01/09 09:11:03;;;;;;;11.50;5.72;;;;;;;;;;6250671;28;20129;-70
2021/01/09 09:14:06;;;;;;;11.18;6.32;;;;;;;;;;6259517;28;20045;-68
2021/01/09 09:17:08;;;;;;;10.07;5.47;;;;;;;;;;6260975;28;20078;-68
2021/01/09 09:20:15;;;;;;;12.15;5.70;;;;;;;;;;6263218;28;20497;-69
2021/01/09 09:23:18;;;;;;;8.85;5.25;;;;;;;;;;6255513;28;20114;-68
2021/01/09 09:26:19;;;;;;;10.30;5.78;;;;;;;;;;6257075;28;20086;-68
2021/01/09 09:29:31;;;;;;;13.45;5.30;;;;;;;;;;6254604;28;20456;-68
2021/01/09 09:32:33;;;;;;;12.55;6.65;;;;;;;;;;6252981;28;20041;-71
2021/01/09 09:35:35;;;;;;;16.35;6.30;;;;;;;;;;6250579;28;20048;-71
2021/01/09 09:38:37;;;;;;;12.13;6.20;;;;;;;;;;6248552;28;20049;-71
2021/01/09 09:42:02;;;;;;;11.38;5.85;;;;;;;;;;6249620;28;20061;-70
2021/01/09 09:45:10;;;;;;;9.68;5.78;;;;;;;;;;6240762;28;20097;-68
2021/01/09 09:48:12;;;;;;;12.50;6.57;;;;;;;;;;6247983;28;20090;-72
2021/01/09 09:51:13;;;;;;;13.07;6.80;;;;;;;;;;5902227;28;9999729;-69
2021/01/09 09:54:14;;;;;;;11.48;6.05;;;;;;;;;;6251250;28;20059;-69
2021/01/09 09:57:20;;;;;;;8.82;6.07;;;;;;;;;;6256167;28;20049;-68
2021/01/09 10:00:22;;;;;;;10.70;6.03;;;;;;;;;;6251262;28;20059;-69
2021/01/09 10:03:34;;;;;;;10.80;5.82;;;;;;;;;;6246503;28;20049;-68
2021/01/09 10:06:37;;;;;;;10.43;5.70;;;;;;;;;;6251315;28;20045;-68
2021/01/09 10:09:38;;;;;;;12.65;5.80;;;;;;;;;;6246655;28;20467;-69
2021/01/09 10:12:39;;;;;;;10.07;5.80;;;;;;;;;;6245406;28;20837;-68
2021/01/09 10:15:40;;;;;;;10.82;5.93;;;;;;;;;;6247193;28;20053;-68
2021/01/09 10:18:42;;;;;;;10.07;5.60;;;;;;;;;;6251673;28;20044;-69
2021/01/09 10:21:44;;;;;;;9.23;6.25;;;;;;;;;;6249900;28;20071;-69
2021/01/09 10:24:45;;;;;;;12.65;6.60;;;;;;;;;;6247694;28;20800;-69
2021/01/09 10:27:46;;;;;;;9.18;5.88;;;;;;;;;;6251757;28;20040;-69
2021/01/09 10:30:47;;;;;;;13.23;6.47;;;;;;;;;;6251646;28;20721;-68
2021/01/09 10:33:49;;;;;;;12.18;6.50;;;;;;;;;;6247604;28;20095;-71
2021/01/09 10:36:50;;;;;;;10.73;6.80;;;;;;;;;;6252117;28;20052;-72
2021/01/09 10:39:51;;;;;;;12.48;7.88;;;;;;;;;;6249630;28;20057;-71
2021/01/09 10:42:52;;;;;;;15.27;7.85;;;;;;;;;;6245083;28;20045;-70
2021/01/09 10:45:53;;;;;;;12.85;7.30;;;;;;;;;;6247842;28;20107;-70
2021/01/09 10:48:56;;;;;;;13.18;7.20;;;;;;;;;;6245170;28;20041;-69
2021/01/09 10:51:57;;;;;;;18.17;7.00;;;;;;;;;;6251133;28;20048;-69
2021/01/09 10:54:58;;;;;;;10.88;7.07;;;;;;;;;;6251122;28;20492;-70
2021/01/09 10:57:59;;;;;;;12.45;7.15;;;;;;;;;;6248690;28;20140;-70
2021/01/09 11:01:00;;;;;;;11.55;6.80;;;;;;;;;;6248540;28;20120;-70
2021/01/09 11:04:02;;;;;;;11.68;7.22;;;;;;;;;;6249950;28;20128;-70
2021/01/09 11:07:03;;;;;;;17.00;7.80;;;;;;;;;;6254619;28;20491;-70
2021/01/09 11:10:06;;;;;;;17.52;7.50;;;;;;;;;;6256059;28;20048;-72
2021/01/09 11:13:07;;;;;;;10.38;6.93;;;;;;;;;;6255185;28;20041;-70
2021/01/09 11:16:08;;;;;;;13.73;6.30;;;;;;;;;;6256805;28;20518;-69
2021/01/09 11:19:10;;;;;;;10.10;6.65;;;;;;;;;;6251454;28;20071;-70
2021/01/09 11:22:11;;;;;;;14.70;6.43;;;;;;;;;;6248135;28;20057;-69
2021/01/09 11:25:12;;;;;;;12.85;7.30;;;;;;;;;;6241254;28;20060;-69
2021/01/09 11:28:14;;;;;;;17.05;7.18;;;;;;;;;;6257927;28;20066;-70
2021/01/09 11:31:15;;;;;;;13.63;7.53;;;;;;;;;;6254710;28;20052;-71
2021/01/09 11:34:17;;;;;;;8.05;5.95;;;;;;;;;;6255303;28;20116;-68
2021/01/09 11:37:22;;;;;;;9.48;6.25;;;;;;;;;;6252754;28;20061;-69
2021/01/09 11:40:23;;;;;;;11.13;7.53;;;;;;;;;;6258109;28;20179;-69
2021/01/09 11:43:24;;;;;;;10.68;6.82;;;;;;;;;;5558037;28;9999927;-68
2021/01/09 11:46:26;;;;;;;12.45;7.15;;;;;;;;;;6257519;28;20041;-69
2021/01/09 11:49:28;;;;;;;12.82;7.40;;;;;;;;;;6251935;28;20092;-68
2021/01/09 11:52:29;;;;;;;10.82;7.10;;;;;;;;;;6255416;28;20059;-68
2021/01/09 11:55:30;;;;;;;10.20;6.32;;;;;;;;;;6252115;28;20041;-68
2021/01/09 11:58:31;;;;;;;10.02;6.22;;;;;;;;;;6264251;28;20052;-69
2021/01/09 12:01:36;;;;;;;11.00;6.53;;;;;;;;;;6252352;28;20202;-70
2021/01/09 12:04:38;;;;;;;11.82;6.50;;;;;;;;;;6257911;28;20126;-68
2021/01/09 12:07:39;;;;;;;11.57;6.80;;;;;;;;;;6254765;28;20045;-68
2021/01/09 12:10:41;;;;;;;13.85;7.57;;;;;;;;;;6254192;28;20053;-70
2021/01/09 12:13:42;;;;;;;9.70;6.57;;;;;;;;;;6257433;28;20052;-72
2021/01/09 12:16:43;;;;;;;13.60;7.70;;;;;;;;;;6257765;28;20047;-68
2021/01/09 12:19:45;;;;;;;12.00;7.30;;;;;;;;;;6254215;28;20057;-68
2021/01/09 12:22:47;;;;;;;10.10;7.07;;;;;;;;;;6249674;28;20064;-68
2021/01/09 12:25:48;;;;;;;10.32;6.60;;;;;;;;;;6259880;28;20081;-68
2021/01/09 12:28:50;;;;;;;11.27;7.65;;;;;;;;;;6252759;28;20037;-70
2021/01/09 12:31:51;;;;;;;12.70;7.10;;;;;;;;;;6257373;28;20056;-68
2021/01/09 12:34:53;;;;;;;15.23;7.68;;;;;;;;;;6257695;28;20057;-69
2021/01/09 12:37:55;;;;;;;11.57;7.25;;;;;;;;;;6253344;28;20526;-68
2021/01/09 12:40:56;;;;;;;9.73;7.30;;;;;;;;;;6254417;28;20529;-69
2021/01/09 12:43:57;;;;;;;11.18;7.07;;;;;;;;;;6245927;28;20052;-70
2021/01/09 12:46:58;;;;;;;12.00;7.28;;;;;;;;;;6260027;28;20076;-72
2021/01/09 12:50:00;;;;;;;9.65;7.15;;;;;;;;;;6258209;28;20048;-69
2021/01/09 12:53:01;;;;;;;12.80;7.05;;;;;;;;;;6259309;28;20056;-69
2021/01/09 12:56:05;;;;;;;10.35;7.13;;;;;;;;;;6256191;28;20041;-70
2021/01/09 12:59:07;;;;;;;12.35;6.15;;;;;;;;;;6261229;28;20090;-70
2021/01/09 13:02:08;;;;;;;36.55;7.32;;;;;;;;;;6262421;28;20066;-69
2021/01/09 13:05:11;;;;;;;10.98;6.57;;;;;;;;;;6260708;28;20070;-68
2021/01/09 13:08:12;;;;;;;10.23;6.72;;;;;;;;;;6247851;28;20047;-70
2021/01/09 13:11:15;;;;;;;11.98;6.05;;;;;;;;;;6257851;28;20045;-67
2021/01/09 13:14:16;;;;;;;7.70;5.50;;;;;;;;;;6259938;28;20462;-71
2021/01/09 13:17:20;;;;;;;8.25;5.63;;;;;;;;;;6255275;28;20052;-67
2021/01/09 13:20:22;;;;;;;8.13;5.50;;;;;;;;;;6254916;28;20072;-69
2021/01/09 13:23:23;;;;;;;7.95;4.95;;;;;;;;;;5560014;28;10000807;-67
2021/01/09 13:26:24;;;;;;;8.57;5.10;;;;;;;;;;6261186;28;20059;-68
2021/01/09 13:29:25;;;;;;;9.43;5.72;;;;;;;;;;6256942;28;20476;-69
2021/01/09 13:32:27;;;;;;;8.65;6.22;;;;;;;;;;6256191;28;20049;-70
2021/01/09 13:35:30;;;;;;;9.23;6.38;;;;;;;;;;6257124;28;20083;-69
2021/01/09 13:38:31;;;;;;;12.18;6.38;;;;;;;;;;6263397;28;20037;-69
2021/01/09 13:41:33;;;;;;;7.55;5.82;;;;;;;;;;6262017;28;20056;-69
2021/01/09 13:44:34;;;;;;;9.65;5.82;;;;;;;;;;6259976;28;20131;-70
2021/01/09 13:47:35;;;;;;;7.53;5.57;;;;;;;;;;6260929;28;20040;-69
2021/01/09 13:50:37;;;;;;;9.32;5.40;;;;;;;;;;6261018;28;20537;-68
2021/01/09 13:53:39;;;;;;;8.80;5.15;;;;;;;;;;6256809;28;20073;-68
2021/01/09 13:56:42;;;;;;;10.25;6.10;;;;;;;;;;6253957;28;20094;-70
2021/01/09 13:59:43;;;;;;;9.25;5.70;;;;;;;;;;6258241;28;20130;-69
2021/01/09 14:02:45;;;;;;;8.25;5.63;;;;;;;;;;6259723;28;20044;-71
2021/01/09 14:05:47;;;;;;;7.65;5.00;;;;;;;;;;6259453;28;20049;-72
2021/01/09 14:08:48;;;;;;;7.40;5.22;;;;;;;;;;6247529;28;20057;-70
2021/01/09 14:11:49;;;;;;;8.70;5.78;;;;;;;;;;6253612;28;20055;-69
2021/01/09 14:14:51;;;;;;;8.77;5.07;;;;;;;;;;6260322;28;20492;-70
2021/01/09 14:17:53;;;;;;;9.75;5.32;;;;;;;;;;6254612;28;20088;-68
2021/01/09 14:20:56;;;;;;;9.52;5.13;;;;;;;;;;6253698;28;20061;-70
2021/01/09 14:23:58;;;;;;;8.07;4.88;;;;;;;;;;6257167;28;20588;-70
2021/01/09 14:27:00;;;;;;;8.90;5.13;;;;;;;;;;6254790;28;20411;-70
2021/01/09 14:30:03;;;;;;;7.25;5.05;;;;;;;;;;6257679;28;20041;-69
2021/01/09 14:33:04;;;;;;;6.53;4.78;;;;;;;;;;6251507;28;20733;-70
2021/01/09 14:36:06;;;;;;;7.07;4.70;;;;;;;;;;6260467;28;20075;-66
2021/01/09 14:39:07;;;;;;;6.80;4.95;;;;;;;;;;6255144;28;20443;-72
2021/01/09 14:42:09;;;;;;;8.07;4.85;;;;;;;;;;6258812;28;20044;-70
2021/01/09 14:45:11;;;;;;;9.32;5.28;;;;;;;;;;6255341;28;20055;-69
2021/01/09 14:48:12;;;;;;;7.07;5.13;;;;;;;;;;6253006;28;20056;-68
2021/01/09 14:51:20;;;;;;;7.07;4.78;;;;;;;;;;6252525;28;20485;-68
2021/01/09 14:54:21;;;;;;;7.47;4.60;;;;;;;;;;6257883;28;20535;-69
2021/01/09 14:57:22;;;;;;;16.02;6.15;;;;;;;;;;6256597;28;20111;-68
2021/01/09 15:00:24;;;;;;;9.18;4.95;;;;;;;;;;6254220;28;20458;-69
2021/01/09 15:03:25;;;;;;;10.52;5.35;;;;;;;;;;6258462;28;20052;-69
2021/01/09 15:06:27;;;;;;;11.18;5.93;;;;;;;;;;6255678;28;20056;-69
2021/01/09 15:09:28;;;;;;;8.77;5.22;;;;;;;;;;6255006;28;20507;-68
2021/01/09 15:12:29;;;;;;;12.50;6.10;;;;;;;;;;6257508;28;20052;-69
2021/01/09 15:15:30;;;;;;;8.93;6.13;;;;;;;;;;6257437;28;20148;-68
2021/01/09 15:22:18;;;;;;;12.20;6.78;;;;;;;;;;6248266;28;20052;-69
2021/01/09 15:25:19;;;;;;;9.68;6.32;;;;;;;;;;6253310;28;20200;-69
2021/01/09 15:28:22;;;;;;;10.82;6.35;;;;;;;;;;5556111;28;10000031;-68
2021/01/09 15:31:23;;;;;;;13.40;6.28;;;;;;;;;;6255625;28;20505;-68
2021/01/09 15:34:25;;;;;;;11.40;7.10;;;;;;;;;;6254210;28;20049;-69
2021/01/09 15:37:27;;;;;;;13.50;6.85;;;;;;;;;;6252214;28;20139;-67
2021/01/09 15:40:28;;;;;;;10.23;6.85;;;;;;;;;;6245838;28;20046;-69
2021/01/09 15:43:29;;;;;;;14.95;7.95;;;;;;;;;;6246079;28;20120;-67
2021/01/09 15:46:30;;;;;;;12.68;8.55;;;;;;;;;;6249816;28;20619;-69
2021/01/09 15:49:31;;;;;;;12.85;7.00;;;;;;;;;;6246419;28;20073;-68
2021/01/09 15:52:33;;;;;;;13.70;8.23;;;;;;;;;;6249795;28;20063;-68
2021/01/09 15:55:34;;;;;;;15.40;8.88;;;;;;;;;;6250240;28;20143;-69
2021/01/09 15:58:37;;;;;;;20.52;10.35;;;;;;;;;;6248995;28;20098;-70
2021/01/09 16:01:39;;;;;;;14.55;10.55;;;;;;;;;;6254642;28;20059;-70
2021/01/09 16:04:40;;;;;;;16.70;10.82;;;;;;;;;;6254219;28;20692;-68
2021/01/09 16:07:42;;;;;;;16.83;10.55;;;;;;;;;;6249823;28;20045;-71
2021/01/09 16:10:43;;;;;;;15.70;10.20;;;;;;;;;;5556180;28;9999923;-70
2021/01/09 16:13:44;;;;;;;17.40;11.07;;;;;;;;;;6254680;28;20053;-67
2021/01/09 16:16:46;;;;;;;17.40;10.57;;;;;;;;;;6251516;28;20053;-68
2021/01/09 16:19:47;;;;;;;16.65;9.65;;;;;;;;;;6253331;28;20041;-70
2021/01/09 16:22:48;;;;;;;14.85;9.85;;;;;;;;;;6254569;28;20071;-71
2021/01/09 16:25:50;;;;;;;14.57;10.23;;;;;;;;;;6261017;28;20080;-70
2021/01/09 16:28:51;;;;;;;15.23;10.10;;;;;;;;;;6255692;28;20356;-68
2021/01/09 16:31:53;;;;;;;17.58;10.65;;;;;;;;;;6248621;28;20041;-68
2021/01/09 16:34:54;;;;;;;18.58;10.07;;;;;;;;;;6257736;28;20099;-69
2021/01/09 16:38:02;;;;;;;16.13;10.30;;;;;;;;;;6255412;28;20045;-68
2021/01/09 16:41:03;;;;;;;17.27;10.55;;;;;;;;;;6257466;28;20077;-69
2021/01/09 16:44:05;;;;;;;16.80;9.52;;;;;;;;;;6257035;28;20061;-68
2021/01/09 16:47:06;;;;;;;18.25;10.50;;;;;;;;;;6258408;28;20102;-68
2021/01/09 16:50:08;;;;;;;23.52;10.00;;;;;;;;;;6253655;28;20065;-68
2021/01/09 16:53:12;;;;;;;16.02;10.43;;;;;;;;;;6250547;28;20137;-68
2021/01/09 16:56:13;;;;;;;17.00;11.23;;;;;;;;;;6253819;28;20613;-69
2021/01/09 16:59:14;;;;;;;19.27;11.65;;;;;;;;;;6257464;28;20476;-71
2021/01/09 17:02:19;;;;;;;23.98;11.32;;;;;;;;;;6258387;28;20094;-68
2021/01/09 17:05:20;;;;;;;15.40;8.60;;;;;;;;;;6247939;28;20083;-70
2021/01/09 17:08:22;;;;;;;14.27;8.55;;;;;;;;;;6252446;28;20478;-69
2021/01/09 17:11:23;;;;;;;14.93;8.13;;;;;;;;;;6246727;28;20136;-70
2021/01/09 17:14:24;;;;;;;15.23;7.65;;;;;;;;;;6255123;28;20049;-70
2021/01/09 17:17:25;;;;;;;14.15;7.60;;;;;;;;;;6249458;28;20098;-68
2021/01/09 17:20:27;;;;;;;11.18;6.70;;;;;;;;;;6261713;28;20063;-68
2021/01/09 17:23:29;;;;;;;12.73;7.45;;;;;;;;;;6256001;28;20049;-69
2021/01/09 17:26:41;;;;;;;12.23;7.68;;;;;;;;;;6260017;28;20551;-68
2021/01/09 17:29:43;;;;;;;13.90;7.65;;;;;;;;;;6252199;28;20052;-69
2021/01/09 17:32:44;;;;;;;19.52;9.75;;;;;;;;;;6259577;28;20037;-70
2021/01/09 17:35:45;;;;;;;13.90;8.57;;;;;;;;;;6259122;28;20365;-69
2021/01/09 17:38:46;;;;;;;16.80;7.75;;;;;;;;;;6252886;28;20495;-70
2021/01/09 17:41:48;;;;;;;16.75;7.88;;;;;;;;;;6252233;28;20862;-71
2021/01/09 17:44:49;;;;;;;13.43;8.20;;;;;;;;;;6254724;28;20193;-67
2021/01/09 17:47:50;;;;;;;15.27;7.70;;;;;;;;;;6254955;28;20492;-68
2021/01/09 17:50:51;;;;;;;12.48;8.25;;;;;;;;;;6250067;28;20051;-69
2021/01/09 17:53:53;;;;;;;17.25;8.93;;;;;;;;;;6254891;28;20532;-69
2021/01/09 17:56:54;;;;;;;16.05;8.85;;;;;;;;;;6255932;28;20036;-67
2021/01/09 17:59:55;;;;;;;20.00;9.63;;;;;;;;;;6247624;28;20044;-67